Terminal Aerodrome Forecast
Issued by NWS

Home | Current Version | Previous Version | Graphics & Text | Print | Product List | Glossary Off
Versions: 1 2 3 4 5 6 7 8 9 10 11 12 13 14 15 16 17 18 19 20 21 22 23 24 25 26 27 28

346
FTUS43 KLOT 302107 AAB
TAFMDW
TAF AMD
KMDW 302107Z 3021/3118 06010KT P6SM SKC
     FM310500 12005KT P6SM SCT120
     FM311500 15008KT P6SM SCT050=

USA.gov is the U.S. government's official web portal to all federal, state and local government web resources and services.